Time;durP1;ratioP1;P1;durP2;ratioP2;P2;SDS_P1;SDS_P2;PMS_P1;PMS_P2;Temp;Humidity;BMP_temperature;BMP_pressure;BME280_temperature;BME280_humidity;BME280_pressure;Samples;Min_cycle;Max_cycle;Signal;HPM_P1;HPM_P2
2023/03/05 00:00:11;;;;;;;6.50;2.90;;;6.20;99.90;;;;;;5057260;28;20419;-80
2023/03/05 00:02:37;;;;;;;5.80;2.50;;;6.20;99.90;;;;;;5056403;28;20421;-79
2023/03/05 00:05:03;;;;;;;7.10;3.13;;;6.10;99.90;;;;;;5057790;28;20432;-80
2023/03/05 00:07:28;;;;;;;7.00;3.13;;;6.30;99.90;;;;;;5053208;28;20209;-80
2023/03/05 00:09:54;;;;;;;6.30;2.87;;;6.40;99.90;;;;;;5063164;28;20256;-77
2023/03/05 00:12:19;;;;;;;7.23;2.57;;;6.20;99.90;;;;;;5054778;28;20186;-78
2023/03/05 00:14:45;;;;;;;9.73;3.13;;;6.20;99.90;;;;;;5065109;28;20197;-80
2023/03/05 00:17:11;;;;;;;6.00;3.23;;;6.30;99.90;;;;;;5065000;28;20267;-81
2023/03/05 00:19:39;;;;;;;8.47;3.77;;;6.30;99.90;;;;;;5062437;28;20236;-78
2023/03/05 00:22:06;;;;;;;8.13;3.00;;;6.40;99.90;;;;;;5069876;28;20420;-78
2023/03/05 00:24:31;;;;;;;6.90;2.87;;;6.30;99.90;;;;;;5064238;28;20590;-79
2023/03/05 00:26:57;;;;;;;11.60;3.50;;;6.10;99.90;;;;;;5064033;28;20428;-80
2023/03/05 00:29:23;;;;;;;9.77;3.77;;;6.20;99.90;;;;;;5045550;28;20206;-80
2023/03/05 00:31:49;;;;;;;7.50;4.10;;;5.80;99.90;;;;;;5055486;28;20644;-78
2023/03/05 00:34:17;;;;;;;11.00;4.63;;;6.10;99.90;;;;;;5060640;28;20188;-80
2023/03/05 00:36:48;;;;;;;8.90;3.90;;;6.40;99.90;;;;;;5067497;28;20500;-80
2023/03/05 00:39:16;;;;;;;9.20;4.20;;;6.30;99.90;;;;;;5064741;28;20507;-81
2023/03/05 00:41:42;;;;;;;8.63;3.07;;;6.20;99.90;;;;;;5049939;28;20440;-79
2023/03/05 00:44:08;;;;;;;5.90;3.10;;;6.30;99.90;;;;;;5067989;28;20419;-80
2023/03/05 00:46:34;;;;;;;8.87;3.03;;;6.00;99.90;;;;;;5052408;28;20455;-80
2023/03/05 00:49:00;;;;;;;9.07;2.87;;;6.30;99.90;;;;;;5068243;28;20815;-79
2023/03/05 00:51:26;;;;;;;7.73;3.50;;;6.30;99.90;;;;;;5064795;28;20436;-77
2023/03/05 00:53:52;;;;;;;11.27;5.33;;;5.90;99.90;;;;;;5038178;28;20256;-79
2023/03/05 00:56:18;;;;;;;10.33;4.23;;;5.90;99.90;;;;;;5036513;28;20555;-77
2023/03/05 00:58:44;;;;;;;10.10;5.23;;;6.10;99.90;;;;;;5037538;28;20886;-78
2023/03/05 01:01:09;;;;;;;7.23;4.70;;;6.00;99.90;;;;;;5034061;28;20932;-81
2023/03/05 01:03:36;;;;;;;9.80;4.20;;;5.90;99.90;;;;;;5032942;28;20413;-78
2023/03/05 01:06:05;;;;;;;13.03;5.20;;;6.00;99.90;;;;;;5033269;28;20614;-79
2023/03/05 01:08:31;;;;;;;6.73;4.30;;;6.00;99.90;;;;;;5033369;28;20461;-79
2023/03/05 01:10:57;;;;;;;5.97;3.60;;;6.10;99.90;;;;;;5040193;28;20418;-77
2023/03/05 01:13:22;;;;;;;6.10;3.60;;;5.90;99.90;;;;;;5055026;28;20544;-79
2023/03/05 01:15:49;;;;;;;8.97;4.20;;;5.80;99.90;;;;;;5055657;28;20466;-79
2023/03/05 01:18:16;;;;;;;7.57;3.17;;;5.80;99.90;;;;;;5055223;28;20201;-79
2023/03/05 01:20:42;;;;;;;5.57;2.63;;;6.00;99.90;;;;;;5056292;28;20415;-79
2023/03/05 01:23:08;;;;;;;7.63;3.30;;;6.00;99.90;;;;;;5055443;28;20800;-79
2023/03/05 01:25:34;;;;;;;5.90;3.07;;;6.10;99.90;;;;;;5055022;28;20416;-79
2023/03/05 01:27:59;;;;;;;6.93;2.90;;;5.90;99.90;;;;;;5054851;28;20869;-81
2023/03/05 01:30:25;;;;;;;6.60;2.60;;;6.00;99.90;;;;;;5054249;28;20456;-82
2023/03/05 01:32:51;;;;;;;4.90;2.17;;;5.80;99.90;;;;;;5055541;28;20182;-81
2023/03/05 01:35:21;;;;;;;5.20;2.50;;;6.00;99.90;;;;;;5056093;28;20646;-80
2023/03/05 01:37:47;;;;;;;10.97;2.90;;;6.10;99.90;;;;;;5055301;28;20229;-78
2023/03/05 01:40:16;;;;;;;6.80;2.13;;;5.90;99.90;;;;;;5054825;28;20442;-79
2023/03/05 01:42:46;;;;;;;6.80;3.67;;;6.10;99.90;;;;;;5055242;28;20424;-80
2023/03/05 01:45:17;;;;;;;5.47;3.50;;;5.80;99.90;;;;;;5054869;28;20524;-78
2023/03/05 01:47:43;;;;;;;7.97;3.83;;;6.00;99.90;;;;;;5053407;28;20539;-79
2023/03/05 01:50:13;;;;;;;6.60;2.60;;;5.80;99.90;;;;;;5055138;28;20414;-79
2023/03/05 01:52:42;;;;;;;9.43;2.87;;;5.80;99.90;;;;;;5055455;28;20441;-79
2023/03/05 01:55:13;;;;;;;4.10;2.40;;;5.80;99.90;;;;;;5055016;28;20420;-79
2023/03/05 01:57:49;;;;;;;8.00;3.20;;;5.80;99.90;;;;;;5055249;28;20972;-78
2023/03/05 02:00:22;;;;;;;5.40;2.90;;;5.80;99.90;;;;;;5054679;28;20416;-77
2023/03/05 02:02:50;;;;;;;8.87;3.00;;;5.80;99.90;;;;;;5055011;28;20421;-78
2023/03/05 02:05:25;;;;;;;6.80;3.50;;;5.70;99.90;;;;;;5053879;28;20440;-79
2023/03/05 02:07:53;;;;;;;4.10;2.80;;;5.70;99.90;;;;;;5054029;28;20459;-77
2023/03/05 02:10:34;;;;;;;7.67;3.50;;;5.70;99.90;;;;;;5054675;28;20484;-78
2023/03/05 02:13:03;;;;;;;6.83;4.00;;;5.60;99.90;;;;;;5035073;28;20639;-78
2023/03/05 02:15:29;;;;;;;8.23;4.27;;;5.70;99.90;;;;;;5034185;28;20413;-80
2023/03/05 02:17:55;;;;;;;8.03;3.50;;;5.80;99.90;;;;;;5033630;28;20918;-78
2023/03/05 02:20:27;;;;;;;7.23;3.37;;;5.20;99.90;;;;;;5035631;28;20451;-79
2023/03/05 02:22:53;;;;;;;6.20;3.57;;;5.60;99.90;;;;;;5039629;28;20995;-78
2023/03/05 02:25:23;;;;;;;9.03;3.57;;;5.50;99.90;;;;;;5037440;28;20425;-80
2023/03/05 02:27:57;;;;;;;5.20;2.73;;;5.60;99.90;;;;;;5036242;28;20467;-79
2023/03/05 02:30:24;;;;;;;3.63;2.60;;;5.70;99.90;;;;;;5034988;28;20515;-79
2023/03/05 02:32:49;;;;;;;8.23;4.00;;;5.60;99.90;;;;;;5036336;28;20401;-79
2023/03/05 02:35:15;;;;;;;6.07;2.23;;;5.50;99.90;;;;;;5034637;28;20458;-78
2023/03/05 02:37:41;;;;;;;3.00;1.83;;;5.60;99.90;;;;;;5034988;28;20249;-80
2023/03/05 02:40:09;;;;;;;3.93;2.27;;;5.40;99.90;;;;;;5035572;28;20186;-78
2023/03/05 02:42:35;;;;;;;6.80;3.30;;;5.70;99.90;;;;;;5034833;28;20421;-77
2023/03/05 02:45:01;;;;;;;2.73;1.80;;;5.50;99.90;;;;;;5045223;28;20428;-80
2023/03/05 02:47:27;;;;;;;2.90;2.00;;;5.60;99.90;;;;;;5075475;28;20561;-80
2023/03/05 02:49:54;;;;;;;4.40;1.70;;;5.60;99.90;;;;;;5074928;28;20442;-80
2023/03/05 02:52:22;;;;;;;6.00;1.53;;;5.30;99.90;;;;;;5074312;28;20217;-80
2023/03/05 02:54:48;;;;;;;5.23;1.80;;;5.50;99.90;;;;;;5075489;28;20772;-80
2023/03/05 02:57:14;;;;;;;4.63;1.60;;;5.50;99.90;;;;;;5074125;28;20454;-78
2023/03/05 02:59:39;;;;;;;6.07;1.60;;;5.60;99.90;;;;;;5075311;28;20424;-80
2023/03/05 03:02:05;;;;;;;5.30;1.43;;;5.50;99.90;;;;;;5075188;28;20180;-80
2023/03/05 03:04:31;;;;;;;4.30;1.60;;;5.60;99.90;;;;;;5074385;28;20208;-79
2023/03/05 03:06:56;;;;;;;4.20;1.70;;;5.50;99.90;;;;;;5073638;28;20220;-78
2023/03/05 03:09:22;;;;;;;3.70;1.47;;;5.60;99.90;;;;;;5072797;28;20669;-79
2023/03/05 03:11:48;;;;;;;5.87;1.60;;;5.60;99.90;;;;;;5074712;28;20185;-80
2023/03/05 03:14:14;;;;;;;3.53;1.60;;;5.70;99.90;;;;;;5073075;28;20188;-80
2023/03/05 03:16:39;;;;;;;5.20;2.17;;;5.50;99.90;;;;;;5075395;28;20658;-80
2023/03/05 03:19:05;;;;;;;7.90;2.10;;;5.50;99.90;;;;;;5072943;28;20212;-79
2023/03/05 03:21:30;;;;;;;3.93;2.37;;;5.50;99.90;;;;;;5075240;28;20180;-79
2023/03/05 03:23:56;;;;;;;8.07;2.50;;;5.70;99.90;;;;;;5074580;28;20235;-78
2023/03/05 03:26:22;;;;;;;7.67;2.43;;;5.40;99.90;;;;;;5074643;28;20219;-78
2023/03/05 03:28:48;;;;;;;12.83;3.00;;;5.60;99.90;;;;;;5073765;28;20205;-79
2023/03/05 03:31:14;;;;;;;4.97;2.63;;;5.50;99.90;;;;;;5073151;28;21108;-80
2023/03/05 03:33:39;;;;;;;6.77;2.40;;;5.50;99.90;;;;;;5073716;28;20177;-79
2023/03/05 03:36:06;;;;;;;5.33;2.70;;;5.40;99.90;;;;;;5074161;28;20247;-79
2023/03/05 03:38:31;;;;;;;7.27;3.40;;;5.40;99.90;;;;;;5055763;28;20228;-78
2023/03/05 03:40:57;;;;;;;5.87;3.40;;;5.30;99.90;;;;;;5073191;28;20477;-80
2023/03/05 03:43:23;;;;;;;3.60;2.80;;;5.50;99.90;;;;;;5074723;28;20192;-78
2023/03/05 03:45:48;;;;;;;7.73;2.87;;;5.60;99.90;;;;;;5044519;28;20189;-77
2023/03/05 03:48:14;;;;;;;3.37;2.20;;;5.50;99.90;;;;;;5053526;28;20214;-80
2023/03/05 03:50:40;;;;;;;2.63;2.10;;;5.30;99.90;;;;;;5054038;28;20208;-79
2023/03/05 03:53:07;;;;;;;4.73;1.97;;;5.40;99.90;;;;;;5052392;28;20725;-80
2023/03/05 03:55:34;;;;;;;4.43;1.90;;;5.40;99.90;;;;;;5052510;28;20451;-79
2023/03/05 03:58:00;;;;;;;3.70;2.10;;;5.50;99.90;;;;;;5056406;28;20447;-80
2023/03/05 04:00:25;;;;;;;6.30;2.13;;;5.40;99.90;;;;;;5056586;28;20412;-78
2023/03/05 04:02:51;;;;;;;4.20;2.27;;;5.40;99.90;;;;;;5057680;28;20419;-77
2023/03/05 04:05:17;;;;;;;4.33;1.77;;;5.40;99.90;;;;;;5055788;28;20212;-79
2023/03/05 04:07:44;;;;;;;4.17;2.27;;;5.30;99.90;;;;;;5056600;28;20216;-78
2023/03/05 04:10:10;;;;;;;5.20;2.20;;;5.30;99.90;;;;;;5057233;28;20170;-78
2023/03/05 04:12:36;;;;;;;4.23;2.33;;;5.50;99.90;;;;;;5056331;28;20490;-80
2023/03/05 04:15:04;;;;;;;3.67;2.67;;;5.50;99.90;;;;;;5057433;28;20420;-78
2023/03/05 04:17:31;;;;;;;7.57;2.83;;;5.30;99.90;;;;;;5055741;28;20229;-80
2023/03/05 04:19:57;;;;;;;4.70;2.40;;;5.30;99.90;;;;;;5055618;28;20940;-77
2023/03/05 04:22:22;;;;;;;8.00;3.43;;;5.50;99.90;;;;;;5056745;28;20416;-80
2023/03/05 04:24:48;;;;;;;7.27;2.50;;;5.40;99.90;;;;;;5056125;28;20208;-78
2023/03/05 04:27:14;;;;;;;8.60;3.70;;;5.30;99.90;;;;;;5056550;28;20204;-77
2023/03/05 04:29:39;;;;;;;6.70;3.40;;;5.30;99.90;;;;;;5056253;28;20826;-78
2023/03/05 04:32:05;;;;;;;6.47;3.90;;;5.40;99.90;;;;;;5057270;28;20180;-80
2023/03/05 04:34:32;;;;;;;4.53;3.17;;;5.30;99.90;;;;;;5054711;28;20213;-79
2023/03/05 04:36:58;;;;;;;5.97;3.37;;;5.20;99.90;;;;;;5051987;28;20443;-79
2023/03/05 04:39:24;;;;;;;6.10;3.50;;;5.30;99.90;;;;;;5051015;28;20408;-79
2023/03/05 04:41:49;;;;;;;4.63;3.23;;;5.50;99.90;;;;;;5052541;28;20403;-79
2023/03/05 04:44:16;;;;;;;7.83;3.70;;;5.40;99.90;;;;;;5051941;28;20416;-79
2023/03/05 04:46:42;;;;;;;5.53;2.77;;;5.40;99.90;;;;;;5051055;28;20575;-79
2023/03/05 04:49:08;;;;;;;5.00;3.47;;;5.20;99.90;;;;;;5051742;28;20593;-79
2023/03/05 04:51:33;;;;;;;7.67;3.20;;;5.30;99.90;;;;;;5052183;28;20507;-79
2023/03/05 04:53:59;;;;;;;6.90;3.20;;;5.30;99.90;;;;;;5051929;28;20167;-80
2023/03/05 04:56:25;;;;;;;3.57;2.53;;;5.20;99.90;;;;;;5051974;28;20173;-79
2023/03/05 04:58:51;;;;;;;9.13;4.17;;;5.30;99.90;;;;;;5051690;28;20201;-79
2023/03/05 05:01:17;;;;;;;10.30;5.63;;;5.20;99.90;;;;;;5051812;28;20905;-79
2023/03/05 05:03:43;;;;;;;18.83;7.40;;;5.40;99.90;;;;;;5051880;28;20189;-79
2023/03/05 05:06:10;;;;;;;12.20;8.13;;;5.30;99.90;;;;;;5050609;28;20444;-79
2023/03/05 05:08:37;;;;;;;12.93;7.00;;;5.30;99.90;;;;;;5050461;28;20546;-78
2023/03/05 05:11:05;;;;;;;14.70;8.80;;;5.30;99.90;;;;;;5050320;28;20417;-79
2023/03/05 05:13:32;;;;;;;15.57;8.70;;;5.50;99.90;;;;;;5050500;28;20976;-79
2023/03/05 05:15:57;;;;;;;14.93;9.30;;;5.30;99.90;;;;;;5050359;28;20432;-79
2023/03/05 05:18:24;;;;;;;15.93;8.43;;;5.10;99.90;;;;;;5051324;28;20470;-79
2023/03/05 05:20:50;;;;;;;14.47;9.60;;;5.30;99.90;;;;;;5049798;28;20174;-79
2023/03/05 05:23:16;;;;;;;20.60;11.43;;;5.30;99.90;;;;;;5051324;28;21007;-78
2023/03/05 05:25:42;;;;;;;16.23;10.43;;;5.30;99.90;;;;;;5051583;28;20547;-79
2023/03/05 05:28:09;;;;;;;16.17;9.80;;;5.30;99.90;;;;;;5051181;28;20884;-79
2023/03/05 05:30:35;;;;;;;17.70;10.00;;;5.20;99.90;;;;;;5049965;28;20182;-78
2023/03/05 05:33:00;;;;;;;19.13;10.60;;;5.30;99.90;;;;;;5051185;28;20416;-79
2023/03/05 05:35:26;;;;;;;24.30;10.50;;;5.40;99.90;;;;;;5050092;28;20182;-79
2023/03/05 05:37:52;;;;;;;16.60;10.07;;;5.40;99.90;;;;;;5051206;28;20213;-79
2023/03/05 05:40:18;;;;;;;16.83;9.70;;;5.30;99.90;;;;;;5049969;28;20898;-79
2023/03/05 05:42:44;;;;;;;20.83;10.00;;;5.30;99.90;;;;;;5052409;28;20543;-79
2023/03/05 05:45:10;;;;;;;16.13;9.53;;;5.30;99.90;;;;;;5051354;28;20169;-77
2023/03/05 05:47:35;;;;;;;14.90;9.67;;;5.30;99.90;;;;;;5050867;28;20972;-77
2023/03/05 05:50:02;;;;;;;16.80;8.97;;;5.20;99.90;;;;;;5051005;28;20443;-79
2023/03/05 05:52:27;;;;;;;14.43;10.07;;;5.20;99.90;;;;;;5051280;28;20181;-79
2023/03/05 05:54:53;;;;;;;13.33;8.73;;;5.10;99.90;;;;;;5050708;28;20400;-78
2023/03/05 05:57:19;;;;;;;14.93;9.47;;;5.20;99.90;;;;;;5050564;28;20208;-78
2023/03/05 05:59:44;;;;;;;14.10;8.60;;;5.30;99.90;;;;;;5049515;28;20209;-79
2023/03/05 06:02:10;;;;;;;16.80;10.10;;;5.30;99.90;;;;;;5050841;28;20215;-79
2023/03/05 06:04:36;;;;;;;13.70;8.80;;;5.40;99.90;;;;;;5050602;28;20174;-79
2023/03/05 06:07:02;;;;;;;13.57;7.77;;;5.20;99.90;;;;;;5050291;28;20213;-78
2023/03/05 06:09:28;;;;;;;15.70;9.13;;;5.30;99.90;;;;;;5050581;28;20480;-79
2023/03/05 06:11:54;;;;;;;15.07;8.70;;;5.30;99.90;;;;;;5050777;28;20827;-79
2023/03/05 06:14:20;;;;;;;14.83;7.90;;;5.20;99.90;;;;;;5050474;28;20181;-79
2023/03/05 06:16:45;;;;;;;12.17;7.07;;;5.30;99.90;;;;;;5050168;28;20186;-79
2023/03/05 06:19:14;;;;;;;11.23;6.83;;;5.30;99.90;;;;;;5050359;28;20233;-79
2023/03/05 06:21:40;;;;;;;14.93;6.83;;;5.10;99.90;;;;;;5049083;28;20193;-79
2023/03/05 06:24:06;;;;;;;11.43;6.23;;;5.20;99.90;;;;;;5050361;28;20420;-79
2023/03/05 06:26:32;;;;;;;11.00;7.53;;;5.00;99.90;;;;;;5049169;28;20951;-79
2023/03/05 06:28:58;;;;;;;9.20;6.83;;;5.20;99.90;;;;;;5049956;28;20543;-79
2023/03/05 06:31:25;;;;;;;9.80;6.77;;;5.20;99.90;;;;;;5050072;28;21006;-79
2023/03/05 06:33:53;;;;;;;18.17;7.70;;;5.10;99.90;;;;;;5050136;28;20256;-79
2023/03/05 06:36:20;;;;;;;13.60;7.10;;;5.10;99.90;;;;;;5050339;28;20440;-79
2023/03/05 06:38:46;;;;;;;12.10;6.83;;;5.30;99.90;;;;;;5049916;28;20412;-79
2023/03/05 06:41:18;;;;;;;9.20;5.47;;;5.30;99.90;;;;;;5049970;28;20780;-78
2023/03/05 06:43:46;;;;;;;10.00;5.73;;;5.30;99.90;;;;;;5049950;28;20213;-79
2023/03/05 06:46:14;;;;;;;9.03;4.93;;;5.30;99.90;;;;;;5050090;28;20413;-79
2023/03/05 06:48:42;;;;;;;12.83;5.57;;;5.30;99.90;;;;;;5048459;28;20488;-79
2023/03/05 06:51:38;;;;;;;14.03;5.57;;;5.30;99.90;;;;;;5049695;28;20405;-79
2023/03/05 06:54:08;;;;;;;12.13;4.80;;;5.20;99.90;;;;;;5044448;28;20486;-79
2023/03/05 06:56:36;;;;;;;5.80;4.40;;;5.30;99.90;;;;;;5048697;28;20404;-78
2023/03/05 06:59:02;;;;;;;13.00;4.80;;;5.30;99.90;;;;;;5048319;28;20909;-79
2023/03/05 07:01:28;;;;;;;9.90;4.43;;;5.30;99.90;;;;;;5049682;28;20447;-79
2023/03/05 07:03:54;;;;;;;6.50;3.70;;;5.10;99.90;;;;;;5031762;28;20412;-78
2023/03/05 07:06:21;;;;;;;10.13;4.07;;;5.20;99.90;;;;;;5049512;28;20945;-78
2023/03/05 07:08:47;;;;;;;10.60;4.20;;;5.30;99.90;;;;;;5049992;28;20458;-79
2023/03/05 07:11:16;;;;;;;6.73;4.17;;;5.10;99.90;;;;;;5048452;28;20917;-78
2023/03/05 07:13:43;;;;;;;4.50;3.57;;;5.30;99.90;;;;;;5049602;28;20782;-78
2023/03/05 07:16:13;;;;;;;7.00;3.67;;;5.20;99.90;;;;;;5049810;28;20810;-79
2023/03/05 07:18:38;;;;;;;8.37;3.80;;;5.20;99.90;;;;;;5048127;28;20464;-79
2023/03/05 07:21:05;;;;;;;5.17;3.67;;;5.30;99.90;;;;;;5049524;28;20439;-78
2023/03/05 07:23:31;;;;;;;4.43;3.30;;;5.20;99.90;;;;;;5048279;28;20592;-78
2023/03/05 07:26:03;;;;;;;11.30;3.67;;;5.10;99.90;;;;;;5049888;28;20474;-78
2023/03/05 07:28:29;;;;;;;8.50;3.50;;;5.30;99.90;;;;;;5047801;28;21310;-78
2023/03/05 07:31:00;;;;;;;8.43;3.80;;;5.20;99.90;;;;;;5048964;28;20439;-79
2023/03/05 07:33:27;;;;;;;7.30;4.07;;;5.30;99.90;;;;;;5048005;28;20416;-78
2023/03/05 07:35:52;;;;;;;6.97;4.20;;;5.30;99.90;;;;;;5048573;28;20416;-78
2023/03/05 07:38:18;;;;;;;10.90;5.50;;;5.40;99.90;;;;;;5049119;28;20497;-78
2023/03/05 07:40:44;;;;;;;7.23;3.67;;;5.50;99.90;;;;;;5048424;28;20412;-79
2023/03/05 07:43:10;;;;;;;9.60;4.23;;;5.40;99.90;;;;;;5048943;28;20412;-78
2023/03/05 07:45:40;;;;;;;8.00;4.20;;;5.50;99.90;;;;;;5048610;28;20409;-79
2023/03/05 07:48:11;;;;;;;5.30;3.53;;;5.40;99.90;;;;;;5049121;28;20624;-78
2023/03/05 07:50:36;;;;;;;5.80;3.63;;;5.30;99.90;;;;;;5049461;28;20443;-79
2023/03/05 07:53:02;;;;;;;7.23;5.30;;;5.30;99.90;;;;;;5049332;28;20436;-79
2023/03/05 07:55:28;;;;;;;11.80;4.53;;;5.40;99.90;;;;;;5049633;28;20223;-79
2023/03/05 07:57:54;;;;;;;11.87;4.90;;;5.20;99.90;;;;;;5048916;28;20790;-79
2023/03/05 08:00:20;;;;;;;15.10;5.17;;;5.30;99.90;;;;;;5049149;28;20178;-79
2023/03/05 08:02:45;;;;;;;11.20;5.50;;;5.50;99.90;;;;;;5049055;28;20182;-79
2023/03/05 08:05:11;;;;;;;10.10;5.70;;;5.40;99.90;;;;;;5049065;28;20202;-78
2023/03/05 08:07:37;;;;;;;11.40;6.90;;;5.20;99.90;;;;;;5047536;28;20459;-78
2023/03/05 08:10:03;;;;;;;21.27;9.57;;;5.40;99.90;;;;;;5049204;28;20514;-79
2023/03/05 08:12:29;;;;;;;21.43;13.83;;;5.40;99.90;;;;;;5048828;28;20173;-79
2023/03/05 08:14:54;;;;;;;21.80;13.13;;;5.40;99.90;;;;;;5048863;28;21069;-79
2023/03/05 08:17:20;;;;;;;28.87;14.50;;;5.60;99.90;;;;;;5048644;28;20193;-79
2023/03/05 08:19:46;;;;;;;22.00;13.70;;;5.70;99.90;;;;;;5047618;28;20174;-79
2023/03/05 08:22:14;;;;;;;27.13;13.37;;;5.60;99.90;;;;;;5047712;28;20692;-79
2023/03/05 08:24:41;;;;;;;23.67;15.00;;;5.60;99.90;;;;;;5048873;28;20170;-79
2023/03/05 08:27:07;;;;;;;24.17;15.10;;;5.40;99.90;;;;;;5047258;28;20951;-78
2023/03/05 08:29:32;;;;;;;26.03;14.53;;;5.60;99.90;;;;;;5048625;28;20452;-79
2023/03/05 08:31:58;;;;;;;23.03;14.97;;;5.70;99.90;;;;;;5049031;28;20667;-78
2023/03/05 08:34:24;;;;;;;20.93;13.83;;;5.60;99.90;;;;;;5048527;28;20408;-79
2023/03/05 08:36:49;;;;;;;17.87;12.63;;;5.70;99.90;;;;;;5048629;28;20194;-79
2023/03/05 08:39:15;;;;;;;15.63;11.93;;;5.60;99.90;;;;;;5048656;28;20674;-79
2023/03/05 08:41:41;;;;;;;15.43;11.70;;;5.60;99.90;;;;;;5048262;28;20264;-78
2023/03/05 08:44:07;;;;;;;17.77;11.60;;;5.60;99.90;;;;;;5051224;28;20174;-79
2023/03/05 08:46:33;;;;;;;15.40;11.33;;;5.60;99.90;;;;;;5052811;28;20178;-79
2023/03/05 08:48:59;;;;;;;14.30;10.00;;;5.50;99.90;;;;;;5051883;28;20459;-79
2023/03/05 08:51:26;;;;;;;18.10;10.13;;;5.30;99.90;;;;;;5052245;28;20420;-79
2023/03/05 08:53:53;;;;;;;15.03;10.60;;;5.60;99.90;;;;;;5052217;28;20408;-78
2023/03/05 08:56:19;;;;;;;14.13;9.23;;;5.60;99.90;;;;;;5052996;28;20407;-79
2023/03/05 08:58:46;;;;;;;13.63;10.50;;;5.40;99.90;;;;;;5052306;28;20408;-79
2023/03/05 09:01:12;;;;;;;14.53;11.30;;;5.40;99.90;;;;;;5052593;28;20416;-79
2023/03/05 09:03:39;;;;;;;19.13;13.13;;;5.50;99.90;;;;;;5051198;28;20404;-79
2023/03/05 09:06:07;;;;;;;19.40;14.13;;;5.50;99.90;;;;;;5052629;28;20775;-79
2023/03/05 09:08:34;;;;;;;19.73;14.20;;;5.40;99.90;;;;;;5051705;28;20538;-78
2023/03/05 09:11:05;;;;;;;17.83;14.60;;;5.30;99.90;;;;;;5050530;28;20411;-79
2023/03/05 09:13:32;;;;;;;19.87;15.17;;;5.30;99.90;;;;;;5051528;28;20496;-79
2023/03/05 09:16:01;;;;;;;18.13;15.20;;;5.40;99.90;;;;;;5050844;28;20413;-79
2023/03/05 09:18:27;;;;;;;15.90;13.97;;;5.30;99.90;;;;;;5051475;28;20806;-79
2023/03/05 09:20:53;;;;;;;22.00;15.10;;;5.40;99.90;;;;;;5052087;28;20419;-79
2023/03/05 09:23:19;;;;;;;18.97;14.47;;;5.20;99.90;;;;;;5051900;28;20499;-77
2023/03/05 09:25:45;;;;;;;18.20;14.90;;;5.40;99.90;;;;;;5052537;28;20855;-79
2023/03/05 09:28:10;;;;;;;16.07;13.80;;;5.30;99.90;;;;;;5051956;28;20221;-79
2023/03/05 09:30:36;;;;;;;17.27;14.30;;;5.30;99.90;;;;;;5052215;28;20184;-79
2023/03/05 09:33:03;;;;;;;16.53;14.80;;;5.50;99.90;;;;;;5052232;28;20193;-79
2023/03/05 09:35:29;;;;;;;16.87;14.67;;;5.40;99.90;;;;;;5052338;28;20409;-79
2023/03/05 09:37:56;;;;;;;16.83;14.30;;;5.30;99.90;;;;;;5051920;28;21018;-79
2023/03/05 09:40:22;;;;;;;14.83;13.23;;;5.30;99.90;;;;;;5051859;28;20424;-79
2023/03/05 09:43:17;;;;;;;17.67;13.90;;;5.30;99.90;;;;;;5052085;28;20421;-79
2023/03/05 09:46:04;;;;;;;15.40;13.60;;;5.30;99.90;;;;;;5052298;28;20443;-79
2023/03/05 09:48:39;;;;;;;19.53;14.80;;;5.40;99.90;;;;;;5052016;28;20464;-79
2023/03/05 09:51:12;;;;;;;19.60;14.60;;;5.40;99.90;;;;;;5050955;28;20465;-79
2023/03/05 09:54:04;;;;;;;14.00;12.43;;;5.30;99.90;;;;;;5049269;28;20444;-79
2023/03/05 09:56:40;;;;;;;17.33;13.80;;;5.40;99.90;;;;;;5049539;28;20477;-79
2023/03/05 09:59:24;;;;;;;17.70;13.93;;;5.40;99.90;;;;;;5051533;28;20419;-80
2023/03/05 10:01:51;;;;;;;16.50;13.53;;;5.50;99.90;;;;;;5052186;28;20443;-79
2023/03/05 10:04:27;;;;;;;16.53;12.33;;;5.30;99.90;;;;;;5050426;28;20412;-78
2023/03/05 10:07:12;;;;;;;20.83;12.80;;;5.30;99.90;;;;;;5049771;28;20459;-79
2023/03/05 10:09:47;;;;;;;18.87;13.17;;;5.40;99.90;;;;;;5050364;28;20488;-79
2023/03/05 10:12:32;;;;;;;15.50;12.37;;;5.50;99.90;;;;;;5050995;28;21029;-79
2023/03/05 10:14:59;;;;;;;15.80;12.50;;;5.50;99.90;;;;;;5050723;28;20400;-79
2023/03/05 10:17:38;;;;;;;18.03;12.70;;;5.60;99.90;;;;;;5051304;28;20428;-79
2023/03/05 10:20:06;;;;;;;16.50;11.47;;;5.60;99.90;;;;;;5050854;28;21141;-79
2023/03/05 10:23:03;;;;;;;18.57;12.00;;;5.60;99.90;;;;;;5032344;28;20409;-79
2023/03/05 10:25:37;;;;;;;12.20;9.90;;;5.90;99.90;;;;;;5029886;28;20410;-79
2023/03/05 10:28:09;;;;;;;12.80;10.70;;;5.80;99.90;;;;;;5044518;28;20547;-79
2023/03/05 10:31:11;;;;;;;14.13;11.10;;;5.90;99.90;;;;;;5049284;28;20466;-79
2023/03/05 10:33:58;;;;;;;16.10;10.00;;;5.90;99.90;;;;;;5050689;28;20408;-79
2023/03/05 10:37:06;;;;;;;13.30;9.53;;;6.10;99.90;;;;;;5053627;28;20756;-79
2023/03/05 10:39:38;;;;;;;10.43;8.13;;;6.00;99.90;;;;;;5039002;28;20421;-80
2023/03/05 10:42:36;;;;;;;10.00;8.30;;;6.00;99.90;;;;;;5044469;28;20425;-81
2023/03/05 10:45:16;;;;;;;10.90;8.87;;;5.90;99.90;;;;;;5051053;28;20413;-81
2023/03/05 10:47:59;;;;;;;11.33;10.10;;;6.20;99.90;;;;;;5035844;28;20463;-80
2023/03/05 10:50:31;;;;;;;10.93;8.83;;;6.20;99.90;;;;;;5035092;28;20409;-78
2023/03/05 10:53:24;;;;;;;10.93;8.73;;;5.90;99.90;;;;;;5034822;28;20432;-80
2023/03/05 10:55:54;;;;;;;11.80;8.93;;;6.00;99.90;;;;;;5034903;28;20413;-80
2023/03/05 10:58:21;;;;;;;15.40;10.53;;;6.20;99.90;;;;;;5034770;28;20441;-79
2023/03/05 11:01:20;;;;;;;11.90;8.53;;;6.10;99.90;;;;;;5035196;28;20444;-78
2023/03/05 11:03:51;;;;;;;11.70;9.10;;;6.20;99.90;;;;;;5017427;28;20429;-80
2023/03/05 11:06:37;;;;;;;11.33;8.77;;;6.30;99.90;;;;;;5035241;28;20443;-79
2023/03/05 11:09:31;;;;;;;10.27;7.67;;;6.10;99.90;;;;;;5034806;28;20468;-79
2023/03/05 11:12:18;;;;;;;9.10;7.10;;;6.20;99.90;;;;;;5048694;28;20795;-77
2023/03/05 11:15:08;;;;;;;6.97;6.20;;;6.10;99.90;;;;;;5054791;28;20420;-78
2023/03/05 11:17:47;;;;;;;7.17;5.70;;;6.10;99.90;;;;;;5052877;28;20440;-78
2023/03/05 11:20:30;;;;;;;8.43;5.40;;;6.10;99.90;;;;;;5054409;28;20405;-80
2023/03/05 11:23:16;;;;;;;7.63;5.93;;;6.00;99.90;;;;;;5054244;28;20461;-79
2023/03/05 11:26:20;;;;;;;5.90;5.27;;;5.90;99.90;;;;;;5054609;28;20417;-80
2023/03/05 11:28:52;;;;;;;8.60;6.37;;;5.80;99.90;;;;;;5051574;28;20578;-78
2023/03/05 11:31:17;;;;;;;8.93;6.90;;;6.20;99.90;;;;;;5055016;28;20428;-78
2023/03/05 11:34:01;;;;;;;11.23;6.30;;;6.00;99.90;;;;;;5054768;28;20462;-79
2023/03/05 11:36:34;;;;;;;7.53;6.10;;;5.90;99.90;;;;;;5055232;28;20237;-80
2023/03/05 11:39:06;;;;;;;6.70;5.83;;;6.00;99.90;;;;;;5055253;28;20444;-80
2023/03/05 11:41:55;;;;;;;7.43;6.03;;;6.10;99.90;;;;;;5063524;28;20417;-78
2023/03/05 11:44:21;;;;;;;6.50;5.30;;;6.10;99.90;;;;;;5064925;28;20424;-77
2023/03/05 11:47:00;;;;;;;8.00;6.53;;;6.20;99.90;;;;;;5055325;28;20501;-80
2023/03/05 11:49:29;;;;;;;7.73;6.10;;;6.10;99.90;;;;;;5050684;28;20467;-80
2023/03/05 11:51:59;;;;;;;5.97;5.30;;;6.30;99.90;;;;;;5052187;28;20416;-80
2023/03/05 11:54:35;;;;;;;7.30;5.70;;;6.30;99.90;;;;;;5051909;28;20996;-80
2023/03/05 11:57:02;;;;;;;8.27;5.70;;;6.20;99.90;;;;;;5035739;28;20468;-81
2023/03/05 11:59:34;;;;;;;5.73;4.57;;;6.40;99.90;;;;;;5030622;28;20465;-78
2023/03/05 12:01:59;;;;;;;5.50;4.57;;;6.20;99.90;;;;;;5031062;28;20422;-79
2023/03/05 12:04:25;;;;;;;4.50;4.10;;;6.30;99.90;;;;;;5031494;28;20467;-78
2023/03/05 12:06:58;;;;;;;3.20;2.63;;;6.30;99.90;;;;;;5030675;28;20253;-80
2023/03/05 12:09:46;;;;;;;4.30;3.27;;;6.30;99.90;;;;;;5030669;28;20206;-80
2023/03/05 12:12:47;;;;;;;5.73;2.93;;;6.20;99.90;;;;;;5046458;28;20479;-78
2023/03/05 12:15:37;;;;;;;3.67;2.87;;;6.20;99.90;;;;;;5035707;28;20761;-80
2023/03/05 12:18:21;;;;;;;4.90;2.40;;;6.50;99.90;;;;;;5054259;28;20436;-79
2023/03/05 12:21:05;;;;;;;4.10;2.60;;;6.30;99.90;;;;;;5056736;28;20509;-80
2023/03/05 12:23:47;;;;;;;2.40;2.07;;;6.40;99.90;;;;;;5056279;28;20412;-81
2023/03/05 12:26:13;;;;;;;2.80;2.40;;;6.50;99.90;;;;;;5057325;28;20423;-79
2023/03/05 12:28:43;;;;;;;3.90;2.30;;;6.70;99.90;;;;;;5040069;28;20467;-79
2023/03/05 12:31:09;;;;;;;3.20;2.00;;;6.50;99.90;;;;;;5038721;28;20421;-78
2023/03/05 12:33:58;;;;;;;4.03;2.00;;;6.50;99.90;;;;;;5036209;28;20420;-79
2023/03/05 12:36:35;;;;;;;3.80;1.73;;;6.90;99.90;;;;;;5035090;28;20187;-79
2023/03/05 12:39:21;;;;;;;2.50;1.50;;;6.60;99.90;;;;;;5036285;28;20464;-78
2023/03/05 12:41:46;;;;;;;3.53;2.13;;;7.00;99.90;;;;;;5036366;28;20431;-78
2023/03/05 12:44:17;;;;;;;4.40;1.90;;;7.10;99.90;;;;;;5036693;28;20417;-80
2023/03/05 12:47:18;;;;;;;5.23;2.27;;;7.10;99.90;;;;;;5076530;28;20231;-79
2023/03/05 12:49:45;;;;;;;3.10;2.80;;;7.10;99.90;;;;;;5074907;28;20562;-79
2023/03/05 12:52:32;;;;;;;4.17;3.80;;;7.10;99.90;;;;;;5074185;28;20522;-81
2023/03/05 12:55:23;;;;;;;6.63;4.03;;;7.20;99.90;;;;;;5073776;28;20494;-78
2023/03/05 12:58:10;;;;;;;6.20;5.60;;;7.40;99.90;;;;;;5072138;28;20528;-80
2023/03/05 13:00:54;;;;;;;8.27;6.33;;;7.40;99.90;;;;;;5059492;28;20434;-79
2023/03/05 13:03:29;;;;;;;6.97;6.27;;;7.40;99.90;;;;;;5077580;28;20447;-79